sensor_id;sensor_type;location;lat;lon;timestamp;temperature;humidity
10512;DHT22;5304;48.604;2.096;2022-09-09T00:05:14;15.50;99.90
10512;DHT22;5304;48.604;2.096;2022-09-09T00:07:55;15.50;99.90
10512;DHT22;5304;48.604;2.096;2022-09-09T00:10:43;15.50;99.90
10512;DHT22;5304;48.604;2.096;2022-09-09T00:13:46;15.50;99.90
10512;DHT22;5304;48.604;2.096;2022-09-09T00:16:36;15.60;99.90
10512;DHT22;5304;48.604;2.096;2022-09-09T00:19:29;15.50;99.90
10512;DHT22;5304;48.604;2.096;2022-09-09T00:22:20;15.50;99.90
10512;DHT22;5304;48.604;2.096;2022-09-09T00:25:15;15.50;99.90
10512;DHT22;5304;48.604;2.096;2022-09-09T00:28:13;15.50;99.90
10512;DHT22;5304;48.604;2.096;2022-09-09T00:31:12;15.50;99.90
10512;DHT22;5304;48.604;2.096;2022-09-09T00:36:58;15.50;99.90
10512;DHT22;5304;48.604;2.096;2022-09-09T00:39:47;15.50;99.90
10512;DHT22;5304;48.604;2.096;2022-09-09T00:42:42;15.50;99.90
10512;DHT22;5304;48.604;2.096;2022-09-09T00:48:17;15.50;99.90
10512;DHT22;5304;48.604;2.096;2022-09-09T00:57:30;15.60;99.90
10512;DHT22;5304;48.604;2.096;2022-09-09T01:00:24;15.60;99.90
10512;DHT22;5304;48.604;2.096;2022-09-09T01:12:07;15.30;99.90
10512;DHT22;5304;48.604;2.096;2022-09-09T01:15:08;15.30;99.90
10512;DHT22;5304;48.604;2.096;2022-09-09T01:18:10;15.30;99.90
10512;DHT22;5304;48.604;2.096;2022-09-09T01:26:41;15.30;99.90
10512;DHT22;5304;48.604;2.096;2022-09-09T01:29:26;15.30;99.90
10512;DHT22;5304;48.604;2.096;2022-09-09T01:32:40;15.20;99.90
10512;DHT22;5304;48.604;2.096;2022-09-09T01:35:43;15.30;99.90
10512;DHT22;5304;48.604;2.096;2022-09-09T01:38:30;15.30;99.90
10512;DHT22;5304;48.604;2.096;2022-09-09T01:41:15;15.20;99.90
10512;DHT22;5304;48.604;2.096;2022-09-09T01:44:00;15.20;99.90
10512;DHT22;5304;48.604;2.096;2022-09-09T01:46:44;15.30;99.90
10512;DHT22;5304;48.604;2.096;2022-09-09T01:59:47;15.30;99.90
10512;DHT22;5304;48.604;2.096;2022-09-09T02:05:40;15.20;99.90
10512;DHT22;5304;48.604;2.096;2022-09-09T02:08:40;15.30;99.90
10512;DHT22;5304;48.604;2.096;2022-09-09T02:11:28;15.40;99.90
10512;DHT22;5304;48.604;2.096;2022-09-09T02:14:17;15.40;99.90
10512;DHT22;5304;48.604;2.096;2022-09-09T02:17:15;15.40;99.90
10512;DHT22;5304;48.604;2.096;2022-09-09T02:20:20;15.30;99.90
10512;DHT22;5304;48.604;2.096;2022-09-09T02:23:09;15.30;99.90
10512;DHT22;5304;48.604;2.096;2022-09-09T02:25:57;15.30;99.90
10512;DHT22;5304;48.604;2.096;2022-09-09T02:28:42;15.20;99.90
10512;DHT22;5304;48.604;2.096;2022-09-09T02:31:27;15.20;99.90
10512;DHT22;5304;48.604;2.096;2022-09-09T02:34:14;15.20;99.90
10512;DHT22;5304;48.604;2.096;2022-09-09T02:37:00;15.10;99.90
10512;DHT22;5304;48.604;2.096;2022-09-09T02:39:46;15.10;99.90
10512;DHT22;5304;48.604;2.096;2022-09-09T02:42:31;15.10;99.90
10512;DHT22;5304;48.604;2.096;2022-09-09T02:45:23;15.00;99.90
10512;DHT22;5304;48.604;2.096;2022-09-09T02:48:28;15.10;99.90
10512;DHT22;5304;48.604;2.096;2022-09-09T02:51:24;15.10;99.90
10512;DHT22;5304;48.604;2.096;2022-09-09T02:54:25;15.20;99.90
10512;DHT22;5304;48.604;2.096;2022-09-09T02:57:25;15.20;99.90
10512;DHT22;5304;48.604;2.096;2022-09-09T03:00:12;15.20;99.90
10512;DHT22;5304;48.604;2.096;2022-09-09T03:02:57;15.20;99.90
10512;DHT22;5304;48.604;2.096;2022-09-09T03:05:43;15.30;99.90
10512;DHT22;5304;48.604;2.096;2022-09-09T03:08:28;15.30;99.90
10512;DHT22;5304;48.604;2.096;2022-09-09T03:11:13;15.30;99.90
10512;DHT22;5304;48.604;2.096;2022-09-09T03:13:58;15.40;99.90
10512;DHT22;5304;48.604;2.096;2022-09-09T03:16:43;15.40;99.90
10512;DHT22;5304;48.604;2.096;2022-09-09T03:19:27;15.40;99.90
10512;DHT22;5304;48.604;2.096;2022-09-09T03:22:11;15.30;99.90
10512;DHT22;5304;48.604;2.096;2022-09-09T03:24:58;15.20;99.90
10512;DHT22;5304;48.604;2.096;2022-09-09T03:27:42;15.20;99.90
10512;DHT22;5304;48.604;2.096;2022-09-09T03:30:27;15.30;99.90
10512;DHT22;5304;48.604;2.096;2022-09-09T03:33:12;15.30;99.90
10512;DHT22;5304;48.604;2.096;2022-09-09T03:35:57;15.30;99.90
10512;DHT22;5304;48.604;2.096;2022-09-09T03:38:41;15.30;99.90
10512;DHT22;5304;48.604;2.096;2022-09-09T03:41:26;15.20;99.90
10512;DHT22;5304;48.604;2.096;2022-09-09T03:44:10;15.20;99.90
10512;DHT22;5304;48.604;2.096;2022-09-09T03:46:54;15.20;99.90
10512;DHT22;5304;48.604;2.096;2022-09-09T03:49:39;15.10;99.90
10512;DHT22;5304;48.604;2.096;2022-09-09T03:52:24;15.10;99.90
10512;DHT22;5304;48.604;2.096;2022-09-09T03:55:10;15.10;99.90
10512;DHT22;5304;48.604;2.096;2022-09-09T03:57:54;15.10;99.90
10512;DHT22;5304;48.604;2.096;2022-09-09T04:00:38;15.10;99.90
10512;DHT22;5304;48.604;2.096;2022-09-09T04:03:27;15.10;99.90
10512;DHT22;5304;48.604;2.096;2022-09-09T04:06:13;15.10;99.90
10512;DHT22;5304;48.604;2.096;2022-09-09T04:08:59;15.10;99.90
10512;DHT22;5304;48.604;2.096;2022-09-09T04:11:43;15.10;99.90
10512;DHT22;5304;48.604;2.096;2022-09-09T04:14:28;15.00;99.90
10512;DHT22;5304;48.604;2.096;2022-09-09T04:17:12;15.00;99.90
10512;DHT22;5304;48.604;2.096;2022-09-09T04:19:57;15.00;99.90
10512;DHT22;5304;48.604;2.096;2022-09-09T04:22:41;15.00;99.90
10512;DHT22;5304;48.604;2.096;2022-09-09T04:25:25;15.10;99.90
10512;DHT22;5304;48.604;2.096;2022-09-09T04:28:10;15.00;99.90
10512;DHT22;5304;48.604;2.096;2022-09-09T04:30:54;15.00;99.90
10512;DHT22;5304;48.604;2.096;2022-09-09T04:33:42;15.10;99.90
10512;DHT22;5304;48.604;2.096;2022-09-09T04:36:26;15.10;99.90
10512;DHT22;5304;48.604;2.096;2022-09-09T04:39:11;15.00;99.90
10512;DHT22;5304;48.604;2.096;2022-09-09T04:41:56;15.00;99.90
10512;DHT22;5304;48.604;2.096;2022-09-09T04:44:40;15.00;99.90
10512;DHT22;5304;48.604;2.096;2022-09-09T04:47:24;15.00;99.90
10512;DHT22;5304;48.604;2.096;2022-09-09T04:50:09;15.00;99.90
10512;DHT22;5304;48.604;2.096;2022-09-09T04:52:54;15.10;99.90
10512;DHT22;5304;48.604;2.096;2022-09-09T04:55:38;15.10;99.90
10512;DHT22;5304;48.604;2.096;2022-09-09T04:58:23;15.20;99.90
10512;DHT22;5304;48.604;2.096;2022-09-09T05:01:12;15.30;99.90
10512;DHT22;5304;48.604;2.096;2022-09-09T05:03:57;15.30;99.90
10512;DHT22;5304;48.604;2.096;2022-09-09T05:06:41;15.30;99.90
10512;DHT22;5304;48.604;2.096;2022-09-09T05:09:26;15.30;99.90
10512;DHT22;5304;48.604;2.096;2022-09-09T05:12:11;15.30;99.90
10512;DHT22;5304;48.604;2.096;2022-09-09T05:14:56;15.30;99.90
10512;DHT22;5304;48.604;2.096;2022-09-09T05:17:42;15.30;99.90
10512;DHT22;5304;48.604;2.096;2022-09-09T05:20:27;15.20;99.90
10512;DHT22;5304;48.604;2.096;2022-09-09T05:23:12;15.20;99.90
10512;DHT22;5304;48.604;2.096;2022-09-09T05:25:58;15.20;99.90
10512;DHT22;5304;48.604;2.096;2022-09-09T05:28:43;15.10;99.90
10512;DHT22;5304;48.604;2.096;2022-09-09T05:31:30;15.10;99.90
10512;DHT22;5304;48.604;2.096;2022-09-09T05:34:14;15.10;99.90
10512;DHT22;5304;48.604;2.096;2022-09-09T05:36:59;15.20;99.90
10512;DHT22;5304;48.604;2.096;2022-09-09T05:39:43;15.20;99.90
10512;DHT22;5304;48.604;2.096;2022-09-09T05:42:31;15.30;99.90
10512;DHT22;5304;48.604;2.096;2022-09-09T05:45:16;15.30;99.90
10512;DHT22;5304;48.604;2.096;2022-09-09T05:48:01;15.30;99.90
10512;DHT22;5304;48.604;2.096;2022-09-09T05:50:52;15.30;99.90
10512;DHT22;5304;48.604;2.096;2022-09-09T05:53:37;15.40;99.90
10512;DHT22;5304;48.604;2.096;2022-09-09T05:56:25;15.40;99.90
10512;DHT22;5304;48.604;2.096;2022-09-09T05:59:09;15.50;99.90
10512;DHT22;5304;48.604;2.096;2022-09-09T06:01:54;15.60;99.90
10512;DHT22;5304;48.604;2.096;2022-09-09T06:04:39;15.60;99.90
10512;DHT22;5304;48.604;2.096;2022-09-09T06:07:23;15.70;99.90
10512;DHT22;5304;48.604;2.096;2022-09-09T06:10:08;15.70;99.90
10512;DHT22;5304;48.604;2.096;2022-09-09T06:12:53;15.70;99.90
10512;DHT22;5304;48.604;2.096;2022-09-09T06:15:37;15.80;99.90
10512;DHT22;5304;48.604;2.096;2022-09-09T06:18:22;15.80;99.90
10512;DHT22;5304;48.604;2.096;2022-09-09T06:21:11;15.90;99.90
10512;DHT22;5304;48.604;2.096;2022-09-09T06:23:57;15.90;99.90
10512;DHT22;5304;48.604;2.096;2022-09-09T06:26:41;16.00;99.90
10512;DHT22;5304;48.604;2.096;2022-09-09T06:29:26;16.00;99.90
10512;DHT22;5304;48.604;2.096;2022-09-09T06:32:10;16.00;99.90
10512;DHT22;5304;48.604;2.096;2022-09-09T06:34:55;16.00;99.90
10512;DHT22;5304;48.604;2.096;2022-09-09T06:37:39;16.00;99.90
10512;DHT22;5304;48.604;2.096;2022-09-09T06:40:24;16.10;99.90
10512;DHT22;5304;48.604;2.096;2022-09-09T06:43:09;16.00;99.90
10512;DHT22;5304;48.604;2.096;2022-09-09T06:45:58;16.10;99.90
10512;DHT22;5304;48.604;2.096;2022-09-09T06:48:44;16.10;99.90
10512;DHT22;5304;48.604;2.096;2022-09-09T06:51:31;16.20;99.90
10512;DHT22;5304;48.604;2.096;2022-09-09T06:54:15;16.60;99.90
10512;DHT22;5304;48.604;2.096;2022-09-09T06:57:00;17.30;99.90
10512;DHT22;5304;48.604;2.096;2022-09-09T06:59:45;18.00;99.90
10512;DHT22;5304;48.604;2.096;2022-09-09T07:02:31;18.80;99.90
10512;DHT22;5304;48.604;2.096;2022-09-09T07:05:16;19.60;99.90
10512;DHT22;5304;48.604;2.096;2022-09-09T07:08:00;20.50;99.90
10512;DHT22;5304;48.604;2.096;2022-09-09T07:10:45;21.10;99.90
10512;DHT22;5304;48.604;2.096;2022-09-09T07:13:30;21.30;99.90
10512;DHT22;5304;48.604;2.096;2022-09-09T07:16:19;21.20;99.90
10512;DHT22;5304;48.604;2.096;2022-09-09T07:19:04;21.20;99.90
10512;DHT22;5304;48.604;2.096;2022-09-09T07:21:48;21.80;99.90
10512;DHT22;5304;48.604;2.096;2022-09-09T07:24:33;22.10;99.90
10512;DHT22;5304;48.604;2.096;2022-09-09T07:27:17;22.50;99.90
10512;DHT22;5304;48.604;2.096;2022-09-09T07:30:02;22.10;99.90
10512;DHT22;5304;48.604;2.096;2022-09-09T07:32:47;20.90;99.90
10512;DHT22;5304;48.604;2.096;2022-09-09T07:35:32;20.30;99.90
10512;DHT22;5304;48.604;2.096;2022-09-09T07:38:18;20.00;99.90
10512;DHT22;5304;48.604;2.096;2022-09-09T07:41:04;20.30;99.90
10512;DHT22;5304;48.604;2.096;2022-09-09T07:43:50;20.50;99.90
10512;DHT22;5304;48.604;2.096;2022-09-09T07:46:35;21.80;99.90
10512;DHT22;5304;48.604;2.096;2022-09-09T07:49:20;22.40;99.90
10512;DHT22;5304;48.604;2.096;2022-09-09T07:52:05;22.90;99.90
10512;DHT22;5304;48.604;2.096;2022-09-09T07:54:49;23.00;99.90
10512;DHT22;5304;48.604;2.096;2022-09-09T07:57:34;21.90;99.90
10512;DHT22;5304;48.604;2.096;2022-09-09T08:00:18;20.90;99.90
10512;DHT22;5304;48.604;2.096;2022-09-09T08:03:04;19.70;99.90
10512;DHT22;5304;48.604;2.096;2022-09-09T08:05:49;19.00;99.90
10512;DHT22;5304;48.604;2.096;2022-09-09T08:08:35;18.60;99.90
10512;DHT22;5304;48.604;2.096;2022-09-09T08:11:20;18.30;99.90
10512;DHT22;5304;48.604;2.096;2022-09-09T08:14:09;18.20;99.90
10512;DHT22;5304;48.604;2.096;2022-09-09T08:16:53;18.00;99.90
10512;DHT22;5304;48.604;2.096;2022-09-09T08:19:38;18.00;99.90
10512;DHT22;5304;48.604;2.096;2022-09-09T08:22:22;17.90;99.90
10512;DHT22;5304;48.604;2.096;2022-09-09T08:25:08;17.80;99.90
10512;DHT22;5304;48.604;2.096;2022-09-09T08:27:54;17.80;99.90
10512;DHT22;5304;48.604;2.096;2022-09-09T08:30:39;17.90;99.90
10512;DHT22;5304;48.604;2.096;2022-09-09T08:33:23;18.00;99.90
10512;DHT22;5304;48.604;2.096;2022-09-09T08:36:11;18.40;99.90
10512;DHT22;5304;48.604;2.096;2022-09-09T08:38:57;19.80;99.90
10512;DHT22;5304;48.604;2.096;2022-09-09T08:45:30;21.40;99.90
10512;DHT22;5304;48.604;2.096;2022-09-09T08:51:06;20.70;99.90
10512;DHT22;5304;48.604;2.096;2022-09-09T08:53:53;20.20;99.90
10512;DHT22;5304;48.604;2.096;2022-09-09T08:56:39;19.80;99.90
10512;DHT22;5304;48.604;2.096;2022-09-09T08:59:23;19.50;99.90
10512;DHT22;5304;48.604;2.096;2022-09-09T09:05:37;18.90;99.90
10512;DHT22;5304;48.604;2.096;2022-09-09T09:11:22;18.40;99.90
10512;DHT22;5304;48.604;2.096;2022-09-09T09:14:21;18.30;99.90
10512;DHT22;5304;48.604;2.096;2022-09-09T09:17:12;18.30;99.90
10512;DHT22;5304;48.604;2.096;2022-09-09T09:19:57;18.40;99.90
10512;DHT22;5304;48.604;2.096;2022-09-09T09:22:51;18.40;99.90
10512;DHT22;5304;48.604;2.096;2022-09-09T09:25:39;18.40;99.90
10512;DHT22;5304;48.604;2.096;2022-09-09T09:28:29;18.50;99.90
10512;DHT22;5304;48.604;2.096;2022-09-09T09:31:15;18.50;99.90
10512;DHT22;5304;48.604;2.096;2022-09-09T09:34:00;18.50;99.90
10512;DHT22;5304;48.604;2.096;2022-09-09T09:36:46;18.80;99.90
10512;DHT22;5304;48.604;2.096;2022-09-09T09:39:36;18.90;99.90
10512;DHT22;5304;48.604;2.096;2022-09-09T09:42:22;18.70;99.90
10512;DHT22;5304;48.604;2.096;2022-09-09T09:45:16;18.50;99.90
10512;DHT22;5304;48.604;2.096;2022-09-09T09:48:08;18.50;99.90
10512;DHT22;5304;48.604;2.096;2022-09-09T09:50:58;18.60;99.90
10512;DHT22;5304;48.604;2.096;2022-09-09T09:53:45;18.70;99.90
10512;DHT22;5304;48.604;2.096;2022-09-09T09:56:30;18.70;99.90
10512;DHT22;5304;48.604;2.096;2022-09-09T09:59:32;18.80;99.90
10512;DHT22;5304;48.604;2.096;2022-09-09T10:02:23;19.00;99.90
10512;DHT22;5304;48.604;2.096;2022-09-09T10:08:04;19.10;99.90
10512;DHT22;5304;48.604;2.096;2022-09-09T10:11:02;19.40;99.90
10512;DHT22;5304;48.604;2.096;2022-09-09T10:19:35;19.20;99.90
10512;DHT22;5304;48.604;2.096;2022-09-09T10:22:26;18.90;99.90
10512;DHT22;5304;48.604;2.096;2022-09-09T10:28:42;18.80;99.90
10512;DHT22;5304;48.604;2.096;2022-09-09T10:31:49;18.70;99.90
10512;DHT22;5304;48.604;2.096;2022-09-09T10:34:52;18.70;99.90
10512;DHT22;5304;48.604;2.096;2022-09-09T10:50:24;18.80;99.90
10512;DHT22;5304;48.604;2.096;2022-09-09T10:56:16;19.00;99.90
10512;DHT22;5304;48.604;2.096;2022-09-09T10:59:13;19.50;99.90
10512;DHT22;5304;48.604;2.096;2022-09-09T11:02:15;19.70;99.90
10512;DHT22;5304;48.604;2.096;2022-09-09T11:08:06;19.70;99.90
10512;DHT22;5304;48.604;2.096;2022-09-09T11:16:46;20.60;99.90
10512;DHT22;5304;48.604;2.096;2022-09-09T11:19:37;20.70;99.90
10512;DHT22;5304;48.604;2.096;2022-09-09T11:25:25;20.50;99.90
10512;DHT22;5304;48.604;2.096;2022-09-09T11:32:06;20.40;99.90
10512;DHT22;5304;48.604;2.096;2022-09-09T11:41:05;22.00;99.90
10512;DHT22;5304;48.604;2.096;2022-09-09T11:43:52;22.40;99.90
10512;DHT22;5304;48.604;2.096;2022-09-09T11:46:38;22.20;99.90
10512;DHT22;5304;48.604;2.096;2022-09-09T11:49:28;22.00;99.90
10512;DHT22;5304;48.604;2.096;2022-09-09T11:52:36;21.90;99.90
10512;DHT22;5304;48.604;2.096;2022-09-09T11:55:37;21.80;99.90
10512;DHT22;5304;48.604;2.096;2022-09-09T11:58:22;21.90;99.90
10512;DHT22;5304;48.604;2.096;2022-09-09T12:04:49;22.30;99.90
10512;DHT22;5304;48.604;2.096;2022-09-09T12:07:41;22.80;99.90
10512;DHT22;5304;48.604;2.096;2022-09-09T12:10:33;22.80;99.90
10512;DHT22;5304;48.604;2.096;2022-09-09T12:13:21;22.70;99.90
10512;DHT22;5304;48.604;2.096;2022-09-09T12:16:32;22.30;99.90
10512;DHT22;5304;48.604;2.096;2022-09-09T12:19:21;21.80;99.90
10512;DHT22;5304;48.604;2.096;2022-09-09T12:30:58;21.10;99.90
10512;DHT22;5304;48.604;2.096;2022-09-09T12:33:45;21.80;99.90
10512;DHT22;5304;48.604;2.096;2022-09-09T12:36:33;22.00;99.90
10512;DHT22;5304;48.604;2.096;2022-09-09T12:39:40;21.90;99.90
10512;DHT22;5304;48.604;2.096;2022-09-09T12:42:27;21.60;99.90
10512;DHT22;5304;48.604;2.096;2022-09-09T12:45:20;21.20;99.90
10512;DHT22;5304;48.604;2.096;2022-09-09T12:48:10;21.10;99.90
10512;DHT22;5304;48.604;2.096;2022-09-09T12:50:56;21.20;99.90
10512;DHT22;5304;48.604;2.096;2022-09-09T12:53:41;21.30;99.90
10512;DHT22;5304;48.604;2.096;2022-09-09T12:56:28;21.50;99.90
10512;DHT22;5304;48.604;2.096;2022-09-09T12:59:24;21.60;99.90
10512;DHT22;5304;48.604;2.096;2022-09-09T13:05:24;21.70;99.90
10512;DHT22;5304;48.604;2.096;2022-09-09T13:08:11;21.50;99.90
10512;DHT22;5304;48.604;2.096;2022-09-09T13:10:59;21.50;99.90
10512;DHT22;5304;48.604;2.096;2022-09-09T13:13:50;21.30;99.90
10512;DHT22;5304;48.604;2.096;2022-09-09T13:16:36;20.90;99.90
10512;DHT22;5304;48.604;2.096;2022-09-09T13:19:20;20.50;99.90
10512;DHT22;5304;48.604;2.096;2022-09-09T13:22:14;20.00;99.90
10512;DHT22;5304;48.604;2.096;2022-09-09T13:25:01;19.40;99.90
10512;DHT22;5304;48.604;2.096;2022-09-09T13:28:04;19.30;99.90
10512;DHT22;5304;48.604;2.096;2022-09-09T13:31:00;19.20;99.90
10512;DHT22;5304;48.604;2.096;2022-09-09T13:33:45;19.20;99.90
10512;DHT22;5304;48.604;2.096;2022-09-09T13:36:31;19.20;99.90
10512;DHT22;5304;48.604;2.096;2022-09-09T13:39:17;19.10;99.90
10512;DHT22;5304;48.604;2.096;2022-09-09T13:42:03;19.20;99.90
10512;DHT22;5304;48.604;2.096;2022-09-09T13:44:48;19.00;99.90
10512;DHT22;5304;48.604;2.096;2022-09-09T13:47:36;19.00;99.90
10512;DHT22;5304;48.604;2.096;2022-09-09T13:50:29;18.90;99.90
10512;DHT22;5304;48.604;2.096;2022-09-09T13:53:13;18.80;99.90
10512;DHT22;5304;48.604;2.096;2022-09-09T13:55:58;18.80;99.90
10512;DHT22;5304;48.604;2.096;2022-09-09T13:58:43;19.00;99.90
10512;DHT22;5304;48.604;2.096;2022-09-09T14:01:27;19.30;99.90
10512;DHT22;5304;48.604;2.096;2022-09-09T14:04:12;19.50;99.90
10512;DHT22;5304;48.604;2.096;2022-09-09T14:06:57;19.70;99.90
10512;DHT22;5304;48.604;2.096;2022-09-09T14:09:42;19.80;99.90
10512;DHT22;5304;48.604;2.096;2022-09-09T14:12:26;19.80;99.90
10512;DHT22;5304;48.604;2.096;2022-09-09T14:15:11;19.50;99.90
10512;DHT22;5304;48.604;2.096;2022-09-09T14:17:56;19.30;99.90
10512;DHT22;5304;48.604;2.096;2022-09-09T14:20:43;19.20;99.90
10512;DHT22;5304;48.604;2.096;2022-09-09T14:23:28;19.00;99.90
10512;DHT22;5304;48.604;2.096;2022-09-09T14:26:13;18.80;99.90
10512;DHT22;5304;48.604;2.096;2022-09-09T14:28:57;18.70;99.90
10512;DHT22;5304;48.604;2.096;2022-09-09T14:31:42;18.60;99.90
10512;DHT22;5304;48.604;2.096;2022-09-09T14:34:27;18.50;99.90
10512;DHT22;5304;48.604;2.096;2022-09-09T14:37:12;18.30;99.90
10512;DHT22;5304;48.604;2.096;2022-09-09T14:39:57;18.30;99.90
10512;DHT22;5304;48.604;2.096;2022-09-09T14:42:41;18.30;99.90
10512;DHT22;5304;48.604;2.096;2022-09-09T14:45:26;18.40;99.90
10512;DHT22;5304;48.604;2.096;2022-09-09T14:48:10;18.50;99.90
10512;DHT22;5304;48.604;2.096;2022-09-09T14:50:55;18.40;99.90
10512;DHT22;5304;48.604;2.096;2022-09-09T14:53:42;18.40;99.90
10512;DHT22;5304;48.604;2.096;2022-09-09T14:56:29;18.40;99.90
10512;DHT22;5304;48.604;2.096;2022-09-09T14:59:13;18.50;99.90
10512;DHT22;5304;48.604;2.096;2022-09-09T15:01:58;18.50;99.90
10512;DHT22;5304;48.604;2.096;2022-09-09T15:04:47;18.60;99.90
10512;DHT22;5304;48.604;2.096;2022-09-09T15:07:34;18.80;99.90
10512;DHT22;5304;48.604;2.096;2022-09-09T15:10:18;18.90;99.90
10512;DHT22;5304;48.604;2.096;2022-09-09T15:13:02;18.90;99.90
10512;DHT22;5304;48.604;2.096;2022-09-09T15:15:47;18.80;99.90
10512;DHT22;5304;48.604;2.096;2022-09-09T15:18:34;18.70;99.90
10512;DHT22;5304;48.604;2.096;2022-09-09T15:21:22;18.60;99.90
10512;DHT22;5304;48.604;2.096;2022-09-09T15:24:07;18.50;99.90
10512;DHT22;5304;48.604;2.096;2022-09-09T15:26:52;18.40;99.90
10512;DHT22;5304;48.604;2.096;2022-09-09T15:29:37;18.40;99.90
10512;DHT22;5304;48.604;2.096;2022-09-09T15:32:22;18.40;99.90
10512;DHT22;5304;48.604;2.096;2022-09-09T15:35:07;18.40;99.90
10512;DHT22;5304;48.604;2.096;2022-09-09T15:37:52;18.30;99.90
10512;DHT22;5304;48.604;2.096;2022-09-09T15:40:36;18.40;99.90
10512;DHT22;5304;48.604;2.096;2022-09-09T15:43:21;18.30;99.90
10512;DHT22;5304;48.604;2.096;2022-09-09T15:49:11;18.10;99.90
10512;DHT22;5304;48.604;2.096;2022-09-09T15:51:57;18.10;99.90
10512;DHT22;5304;48.604;2.096;2022-09-09T15:54:42;18.00;99.90
10512;DHT22;5304;48.604;2.096;2022-09-09T15:57:27;18.00;99.90
10512;DHT22;5304;48.604;2.096;2022-09-09T16:00:12;17.90;99.90
10512;DHT22;5304;48.604;2.096;2022-09-09T16:02:58;17.60;99.90
10512;DHT22;5304;48.604;2.096;2022-09-09T16:05:42;17.50;99.90
10512;DHT22;5304;48.604;2.096;2022-09-09T16:08:40;17.40;99.90
10512;DHT22;5304;48.604;2.096;2022-09-09T16:11:26;17.20;99.90
10512;DHT22;5304;48.604;2.096;2022-09-09T16:14:11;17.00;99.90
10512;DHT22;5304;48.604;2.096;2022-09-09T16:16:56;17.00;99.90
10512;DHT22;5304;48.604;2.096;2022-09-09T16:19:40;17.00;99.90
10512;DHT22;5304;48.604;2.096;2022-09-09T16:22:24;17.00;99.90
10512;DHT22;5304;48.604;2.096;2022-09-09T16:25:09;17.00;99.90
10512;DHT22;5304;48.604;2.096;2022-09-09T16:27:54;17.00;99.90
10512;DHT22;5304;48.604;2.096;2022-09-09T16:30:38;17.10;99.90
10512;DHT22;5304;48.604;2.096;2022-09-09T16:33:22;17.10;99.90
10512;DHT22;5304;48.604;2.096;2022-09-09T16:36:11;17.20;99.90
10512;DHT22;5304;48.604;2.096;2022-09-09T16:38:58;17.10;99.90
10512;DHT22;5304;48.604;2.096;2022-09-09T16:41:44;17.10;99.90
10512;DHT22;5304;48.604;2.096;2022-09-09T16:44:29;17.20;99.90
10512;DHT22;5304;48.604;2.096;2022-09-09T16:47:14;17.20;99.90
10512;DHT22;5304;48.604;2.096;2022-09-09T16:49:58;17.20;99.90
10512;DHT22;5304;48.604;2.096;2022-09-09T16:52:43;17.20;99.90
10512;DHT22;5304;48.604;2.096;2022-09-09T16:55:28;17.30;99.90
10512;DHT22;5304;48.604;2.096;2022-09-09T16:58:13;17.30;99.90
10512;DHT22;5304;48.604;2.096;2022-09-09T17:00:59;17.20;99.90
10512;DHT22;5304;48.604;2.096;2022-09-09T17:03:44;17.20;99.90
10512;DHT22;5304;48.604;2.096;2022-09-09T17:06:30;17.10;99.90
10512;DHT22;5304;48.604;2.096;2022-09-09T17:09:15;17.10;99.90
10512;DHT22;5304;48.604;2.096;2022-09-09T17:11:59;17.10;99.90
10512;DHT22;5304;48.604;2.096;2022-09-09T17:14:44;17.10;99.90
10512;DHT22;5304;48.604;2.096;2022-09-09T17:17:29;17.00;99.90
10512;DHT22;5304;48.604;2.096;2022-09-09T17:20:14;17.00;99.90
10512;DHT22;5304;48.604;2.096;2022-09-09T17:22:59;16.90;99.90
10512;DHT22;5304;48.604;2.096;2022-09-09T17:25:44;16.90;99.90
10512;DHT22;5304;48.604;2.096;2022-09-09T17:28:29;16.90;99.90
10512;DHT22;5304;48.604;2.096;2022-09-09T17:31:17;16.90;99.90
10512;DHT22;5304;48.604;2.096;2022-09-09T17:34:02;16.80;99.90
10512;DHT22;5304;48.604;2.096;2022-09-09T17:36:48;16.80;99.90
10512;DHT22;5304;48.604;2.096;2022-09-09T17:39:33;16.80;99.90
10512;DHT22;5304;48.604;2.096;2022-09-09T17:42:18;16.80;99.90
10512;DHT22;5304;48.604;2.096;2022-09-09T17:45:03;16.80;99.90
10512;DHT22;5304;48.604;2.096;2022-09-09T17:47:47;16.80;99.90
10512;DHT22;5304;48.604;2.096;2022-09-09T17:50:33;16.70;99.90
10512;DHT22;5304;48.604;2.096;2022-09-09T17:53:18;16.80;99.90
10512;DHT22;5304;48.604;2.096;2022-09-09T17:56:04;16.80;99.90
10512;DHT22;5304;48.604;2.096;2022-09-09T17:58:50;16.80;99.90
10512;DHT22;5304;48.604;2.096;2022-09-09T18:01:37;16.80;99.90
10512;DHT22;5304;48.604;2.096;2022-09-09T18:04:22;16.70;99.90
10512;DHT22;5304;48.604;2.096;2022-09-09T18:07:07;16.70;99.90
10512;DHT22;5304;48.604;2.096;2022-09-09T18:09:51;16.70;99.90
10512;DHT22;5304;48.604;2.096;2022-09-09T18:12:36;16.70;99.90
10512;DHT22;5304;48.604;2.096;2022-09-09T18:15:20;16.70;99.90
10512;DHT22;5304;48.604;2.096;2022-09-09T18:18:05;16.60;99.90
10512;DHT22;5304;48.604;2.096;2022-09-09T18:21:03;16.50;99.90
10512;DHT22;5304;48.604;2.096;2022-09-09T18:23:49;16.50;99.90
10512;DHT22;5304;48.604;2.096;2022-09-09T18:26:35;16.40;99.90
10512;DHT22;5304;48.604;2.096;2022-09-09T18:29:21;16.40;99.90
10512;DHT22;5304;48.604;2.096;2022-09-09T18:32:08;16.40;99.90
10512;DHT22;5304;48.604;2.096;2022-09-09T18:34:52;16.40;99.90
10512;DHT22;5304;48.604;2.096;2022-09-09T18:37:39;16.30;99.90
10512;DHT22;5304;48.604;2.096;2022-09-09T18:40:23;16.30;99.90
10512;DHT22;5304;48.604;2.096;2022-09-09T18:43:08;16.30;99.90
10512;DHT22;5304;48.604;2.096;2022-09-09T18:45:54;16.30;99.90
10512;DHT22;5304;48.604;2.096;2022-09-09T18:48:39;16.20;99.90
10512;DHT22;5304;48.604;2.096;2022-09-09T18:51:26;16.20;99.90
10512;DHT22;5304;48.604;2.096;2022-09-09T18:54:19;16.10;99.90
10512;DHT22;5304;48.604;2.096;2022-09-09T18:57:04;16.10;99.90
10512;DHT22;5304;48.604;2.096;2022-09-09T18:59:49;16.00;99.90
10512;DHT22;5304;48.604;2.096;2022-09-09T19:02:33;16.00;99.90
10512;DHT22;5304;48.604;2.096;2022-09-09T19:05:18;16.00;99.90
10512;DHT22;5304;48.604;2.096;2022-09-09T19:08:02;16.00;99.90
10512;DHT22;5304;48.604;2.096;2022-09-09T19:10:47;15.90;99.90
10512;DHT22;5304;48.604;2.096;2022-09-09T19:13:32;15.90;99.90
10512;DHT22;5304;48.604;2.096;2022-09-09T19:16:16;16.00;99.90
10512;DHT22;5304;48.604;2.096;2022-09-09T19:19:04;16.00;99.90
10512;DHT22;5304;48.604;2.096;2022-09-09T19:21:49;16.00;99.90
10512;DHT22;5304;48.604;2.096;2022-09-09T19:24:35;16.00;99.90
10512;DHT22;5304;48.604;2.096;2022-09-09T19:27:20;15.90;99.90
10512;DHT22;5304;48.604;2.096;2022-09-09T19:30:05;15.90;99.90
10512;DHT22;5304;48.604;2.096;2022-09-09T19:32:50;15.90;99.90
10512;DHT22;5304;48.604;2.096;2022-09-09T19:35:35;15.90;99.90
10512;DHT22;5304;48.604;2.096;2022-09-09T19:38:19;15.80;99.90
10512;DHT22;5304;48.604;2.096;2022-09-09T19:41:18;15.80;99.90
10512;DHT22;5304;48.604;2.096;2022-09-09T19:44:09;15.70;99.90
10512;DHT22;5304;48.604;2.096;2022-09-09T19:46:55;15.70;99.90
10512;DHT22;5304;48.604;2.096;2022-09-09T19:49:40;15.60;99.90
10512;DHT22;5304;48.604;2.096;2022-09-09T19:52:24;15.60;99.90
10512;DHT22;5304;48.604;2.096;2022-09-09T19:55:09;15.60;99.90
10512;DHT22;5304;48.604;2.096;2022-09-09T19:57:54;15.60;99.90